createdAt,value
2018-09-23T00:00:39.017Z,93.70
2018-09-23T00:03:08.547Z,93.50
2018-09-23T00:05:38.200Z,93.70
2018-09-23T00:08:08.164Z,93.50
2018-09-23T00:10:37.695Z,93.70
2018-09-23T00:13:07.477Z,93.90
2018-09-23T00:15:37.040Z,93.70
2018-09-23T00:18:06.990Z,93.50
2018-09-23T00:20:36.611Z,93.50
2018-09-23T00:23:06.259Z,93.50
2018-09-23T00:25:35.816Z,93.60
2018-09-23T00:28:05.565Z,93.60
2018-09-23T00:30:35.163Z,93.80
2018-09-23T00:33:04.794Z,93.50
2018-09-23T00:35:34.413Z,93.50
2018-09-23T00:38:04.044Z,93.40
2018-09-23T00:40:33.629Z,93.40
2018-09-23T00:43:03.297Z,93.60
2018-09-23T00:45:32.958Z,93.50
2018-09-23T00:48:02.558Z,93.60
2018-09-23T00:50:32.192Z,93.50
2018-09-23T00:53:01.772Z,93.40
2018-09-23T00:55:31.350Z,93.30
2018-09-23T00:58:00.943Z,93.40
2018-09-23T01:00:30.505Z,93.70
2018-09-23T01:03:00.133Z,93.50
2018-09-23T01:05:29.726Z,93.40
2018-09-23T01:07:59.353Z,93.50
2018-09-23T01:10:29.008Z,93.40
2018-09-23T01:12:58.622Z,93.20
2018-09-23T01:15:28.294Z,93.20
2018-09-23T01:17:57.871Z,93.20
2018-09-23T01:20:27.489Z,93.50
2018-09-23T01:22:57.120Z,93.30
2018-09-23T01:25:26.737Z,93.30
2018-09-23T01:27:56.312Z,93.40
2018-09-23T01:30:25.982Z,93.20
2018-09-23T01:32:55.637Z,93.30
2018-09-23T01:35:25.210Z,93.30
2018-09-23T01:37:54.812Z,93.30
2018-09-23T01:40:24.410Z,93.30
2018-09-23T01:42:54.003Z,93.30
2018-09-23T01:45:23.662Z,93.30
2018-09-23T01:47:53.245Z,93.40
2018-09-23T01:50:22.847Z,93.60
2018-09-23T01:52:52.449Z,93.50
2018-09-23T01:55:22.080Z,93.40
2018-09-23T01:57:51.655Z,93.50
2018-09-23T02:00:21.331Z,93.50
2018-09-23T02:02:50.922Z,93.60
2018-09-23T02:05:20.509Z,93.60
2018-09-23T02:07:50.096Z,93.60
2018-09-23T02:10:19.808Z,93.60
2018-09-23T02:12:49.401Z,93.70
2018-09-23T02:15:19.021Z,93.60
2018-09-23T02:17:48.629Z,93.60
2018-09-23T02:20:18.246Z,93.50
2018-09-23T02:22:47.787Z,93.50
2018-09-23T02:25:17.423Z,93.40
2018-09-23T02:27:47.084Z,93.50
2018-09-23T02:30:16.676Z,93.50
2018-09-23T02:32:46.317Z,93.70
2018-09-23T02:35:15.925Z,93.80
2018-09-23T02:37:45.489Z,93.70
2018-09-23T02:40:15.100Z,93.60
2018-09-23T02:42:44.753Z,93.70
2018-09-23T02:45:14.341Z,94.10
2018-09-23T02:47:44.068Z,93.90
2018-09-23T02:50:13.726Z,93.70
2018-09-23T02:52:43.391Z,93.70
2018-09-23T02:55:12.999Z,94.30
2018-09-23T02:57:42.553Z,94.20
2018-09-23T03:00:12.273Z,94.10
2018-09-23T03:02:41.893Z,93.80
2018-09-23T03:05:11.521Z,93.80
2018-09-23T03:07:41.102Z,93.90
2018-09-23T03:10:10.745Z,93.80
2018-09-23T03:12:40.373Z,93.60
2018-09-23T03:15:09.973Z,93.70
2018-09-23T03:17:39.538Z,93.90
2018-09-23T03:20:09.232Z,93.80
2018-09-23T03:22:38.863Z,93.70
2018-09-23T03:25:08.462Z,94.10
2018-09-23T03:27:38.136Z,93.90
2018-09-23T03:30:07.720Z,94.00
2018-09-23T03:32:37.350Z,94.00
2018-09-23T03:35:06.972Z,93.80
2018-09-23T03:37:36.555Z,94.10
2018-09-23T03:40:06.310Z,94.00
2018-09-23T03:42:36.052Z,94.20
2018-09-23T03:45:05.728Z,94.60
2018-09-23T03:47:35.383Z,94.50
2018-09-23T03:50:05.124Z,94.30
2018-09-23T03:52:34.768Z,94.40
2018-09-23T03:55:04.483Z,94.20
2018-09-23T03:57:34.080Z,94.50
2018-09-23T04:00:03.615Z,94.50
2018-09-23T04:02:33.210Z,94.40
2018-09-23T04:05:02.837Z,94.40
2018-09-23T04:07:32.511Z,94.50
2018-09-23T04:10:02.267Z,94.10
2018-09-23T04:12:32.157Z,93.80
2018-09-23T04:15:01.802Z,94.00
2018-09-23T04:17:31.407Z,94.10
2018-09-23T04:20:01.046Z,94.10
2018-09-23T04:22:30.664Z,94.40
2018-09-23T04:25:00.261Z,94.20
2018-09-23T04:27:29.971Z,94.60
2018-09-23T04:29:59.548Z,94.20
2018-09-23T04:32:29.114Z,94.20
2018-09-23T04:34:58.666Z,94.30
2018-09-23T04:37:28.270Z,94.20
2018-09-23T04:39:57.949Z,94.70
2018-09-23T04:42:27.508Z,94.30
2018-09-23T04:44:57.538Z,94.60
2018-09-23T04:47:27.237Z,94.50
2018-09-23T04:49:56.788Z,94.60
2018-09-23T04:52:26.406Z,94.50
2018-09-23T04:54:56.008Z,94.60
2018-09-23T04:57:25.544Z,94.60
2018-09-23T04:59:55.207Z,94.50
2018-09-23T05:02:24.794Z,94.90
2018-09-23T05:04:54.411Z,94.80
2018-09-23T05:07:24.121Z,94.40
2018-09-23T05:09:53.700Z,94.70
2018-09-23T05:12:23.410Z,94.90
2018-09-23T05:14:53.126Z,94.80
2018-09-23T05:17:22.828Z,94.80
2018-09-23T05:19:52.378Z,94.80
2018-09-23T05:22:22.297Z,94.40
2018-09-23T05:24:51.877Z,94.50
2018-09-23T05:27:21.497Z,94.70
2018-09-23T05:29:51.114Z,94.50
2018-09-23T05:32:20.858Z,94.90
2018-09-23T05:34:50.477Z,94.40
2018-09-23T05:37:20.094Z,94.70
2018-09-23T05:39:49.726Z,94.40
2018-09-23T05:42:19.391Z,94.80
2018-09-23T05:44:48.977Z,94.80
2018-09-23T05:47:18.499Z,94.10
2018-09-23T05:49:48.129Z,94.50
2018-09-23T05:52:17.734Z,94.50
2018-09-23T05:54:47.351Z,94.60
2018-09-23T05:57:16.985Z,94.80
2018-09-23T05:59:46.621Z,94.10
2018-09-23T06:02:16.372Z,94.40
2018-09-23T06:04:46.110Z,94.10
2018-09-23T06:07:15.707Z,94.30
2018-09-23T06:09:45.367Z,94.30
2018-09-23T06:12:14.947Z,94.30
2018-09-23T06:14:44.585Z,94.30
2018-09-23T06:17:14.174Z,94.30
2018-09-23T06:19:43.790Z,94.20
2018-09-23T06:22:13.389Z,94.50
2018-09-23T06:24:43.065Z,94.00
2018-09-23T06:27:12.628Z,93.90
2018-09-23T06:29:42.238Z,94.50
2018-09-23T06:32:11.825Z,94.10
2018-09-23T06:34:41.508Z,93.90
2018-09-23T06:37:11.097Z,94.50
2018-09-23T06:39:40.664Z,94.50
2018-09-23T06:42:10.278Z,94.20
2018-09-23T06:44:39.929Z,94.60
2018-09-23T06:47:09.566Z,94.00
2018-09-23T06:49:39.190Z,93.90
2018-09-23T06:52:09.067Z,94.20
2018-09-23T06:54:38.596Z,93.70
2018-09-23T06:57:08.140Z,94.00
2018-09-23T06:59:37.804Z,94.10
2018-09-23T07:02:07.450Z,94.30
2018-09-23T07:04:37.085Z,94.20
2018-09-23T07:07:13.193Z,94.10
2018-09-23T07:09:42.827Z,93.90
2018-09-23T07:12:12.423Z,93.90
2018-09-23T07:14:42.054Z,93.90
2018-09-23T07:17:11.751Z,93.80
2018-09-23T07:19:41.331Z,93.80
2018-09-23T07:22:10.896Z,94.00
2018-09-23T07:24:40.553Z,94.10
2018-09-23T07:27:10.189Z,94.10
2018-09-23T07:29:39.785Z,93.90
2018-09-23T07:32:09.448Z,93.90
2018-09-23T07:34:39.038Z,93.80
2018-09-23T07:37:08.656Z,93.80
2018-09-23T07:39:38.349Z,93.70
2018-09-23T07:42:08.017Z,93.60
2018-09-23T07:44:37.601Z,93.90
2018-09-23T07:47:07.329Z,94.00
2018-09-23T07:49:36.982Z,93.80
2018-09-23T07:52:06.586Z,93.60
2018-09-23T07:54:36.239Z,93.80
2018-09-23T07:57:05.858Z,93.60
2018-09-23T07:59:35.480Z,93.40
2018-09-23T08:02:05.127Z,93.70
2018-09-23T08:04:34.866Z,93.80
2018-09-23T08:07:04.435Z,93.90
2018-09-23T08:09:34.081Z,93.30
2018-09-23T08:12:03.670Z,93.80
2018-09-23T08:14:33.684Z,93.60
2018-09-23T08:17:03.000Z,93.60
2018-09-23T08:19:32.684Z,93.60
2018-09-23T08:22:02.261Z,93.50
2018-09-23T08:24:31.867Z,93.40
2018-09-23T08:27:01.431Z,93.50
2018-09-23T08:29:31.133Z,93.40
2018-09-23T08:32:00.667Z,93.70
2018-09-23T08:34:30.266Z,93.60
2018-09-23T08:36:59.892Z,93.50
2018-09-23T08:39:29.471Z,93.30
2018-09-23T08:41:59.141Z,93.40
2018-09-23T08:44:29.435Z,93.50
2018-09-23T08:46:59.105Z,93.30
2018-09-23T08:49:28.693Z,93.40
2018-09-23T08:51:58.345Z,93.50
2018-09-23T08:54:28.013Z,93.20
2018-09-23T08:56:57.615Z,93.30
2018-09-23T08:59:27.371Z,93.50
2018-09-23T09:01:57.018Z,93.10
2018-09-23T09:04:26.702Z,93.40
2018-09-23T09:06:56.344Z,93.10
2018-09-23T09:09:25.887Z,93.30
2018-09-23T09:11:55.489Z,93.20
2018-09-23T09:14:25.079Z,93.40
2018-09-23T09:16:54.716Z,92.90
2018-09-23T09:19:24.275Z,93.00
2018-09-23T09:21:54.030Z,93.00
2018-09-23T09:24:23.625Z,92.90
2018-09-23T09:26:53.292Z,92.60
2018-09-23T09:29:22.947Z,92.80
2018-09-23T09:31:52.545Z,92.80
2018-09-23T09:34:22.216Z,93.00
2018-09-23T09:36:51.887Z,92.90
2018-09-23T09:39:21.616Z,92.80
2018-09-23T09:41:51.246Z,92.80
2018-09-23T09:44:21.068Z,92.60
2018-09-23T09:46:50.658Z,92.90
2018-09-23T09:49:20.393Z,92.60
2018-09-23T09:51:49.998Z,92.70
2018-09-23T09:54:19.882Z,92.50
2018-09-23T09:56:49.565Z,92.60
2018-09-23T09:59:19.468Z,92.80
2018-09-23T10:01:49.140Z,92.90
2018-09-23T10:04:19.015Z,92.70
2018-09-23T10:06:48.626Z,92.80
2018-09-23T10:09:18.242Z,92.70
2018-09-23T10:11:47.863Z,92.80
2018-09-23T10:14:20.283Z,92.60
2018-09-23T10:16:49.967Z,92.40
2018-09-23T10:19:19.593Z,92.50
2018-09-23T10:21:49.193Z,92.30
2018-09-23T10:24:18.840Z,92.40
2018-09-23T10:26:48.550Z,92.30
2018-09-23T10:29:18.135Z,92.40
2018-09-23T10:31:48.740Z,91.90
2018-09-23T10:34:18.425Z,91.80
2018-09-23T10:36:48.016Z,92.40
2018-09-23T10:39:17.667Z,92.00
2018-09-23T10:41:47.406Z,92.20
2018-09-23T10:44:17.048Z,92.30
2018-09-23T10:46:46.637Z,92.20
2018-09-23T10:49:16.303Z,91.80
2018-09-23T10:51:45.924Z,92.30
2018-09-23T10:54:15.603Z,92.00
2018-09-23T10:56:45.227Z,92.10
2018-09-23T10:59:14.809Z,92.20
2018-09-23T11:01:44.411Z,92.40
2018-09-23T11:04:14.042Z,92.00
2018-09-23T11:06:43.672Z,92.20
2018-09-23T11:09:13.282Z,92.20
2018-09-23T11:11:42.843Z,92.30
2018-09-23T11:14:12.442Z,92.40
2018-09-23T11:16:42.126Z,92.20
2018-09-23T11:19:11.737Z,92.30
2018-09-23T11:21:41.367Z,92.20
2018-09-23T11:24:11.025Z,92.30
2018-09-23T11:26:40.641Z,92.20
2018-09-23T11:29:10.390Z,92.50
2018-09-23T11:31:40.052Z,92.40
2018-09-23T11:34:09.812Z,92.20
2018-09-23T11:36:39.529Z,92.30
2018-09-23T11:39:11.329Z,92.40
2018-09-23T11:41:40.970Z,92.20
2018-09-23T11:44:10.585Z,92.20
2018-09-23T11:46:40.316Z,92.20
2018-09-23T11:49:09.946Z,92.20
2018-09-23T11:51:39.637Z,92.20
2018-09-23T11:54:09.325Z,91.80
2018-09-23T11:56:38.917Z,92.10
2018-09-23T11:59:08.827Z,91.90
2018-09-23T12:01:38.394Z,91.90
2018-09-23T12:04:08.034Z,92.10
2018-09-23T12:06:37.715Z,92.20
2018-09-23T12:09:10.799Z,92.10
2018-09-23T12:11:40.343Z,92.30
2018-09-23T12:14:10.495Z,92.40
2018-09-23T12:16:40.127Z,92.20
2018-09-23T12:19:09.724Z,92.30
2018-09-23T12:21:39.390Z,92.40
2018-09-23T12:24:08.947Z,92.20
2018-09-23T12:26:38.554Z,92.10
2018-09-23T12:29:08.157Z,91.30
2018-09-23T12:31:37.817Z,91.30
2018-09-23T12:34:07.441Z,90.80
2018-09-23T12:36:37.061Z,91.00
2018-09-23T12:39:09.710Z,90.70
2018-09-23T12:41:39.440Z,91.00
2018-09-23T12:44:09.243Z,91.10
2018-09-23T12:46:38.791Z,90.70
2018-09-23T12:49:08.524Z,91.00
2018-09-23T12:51:38.155Z,90.70
2018-09-23T12:54:07.743Z,90.40
2018-09-23T12:56:37.390Z,90.40
2018-09-23T12:59:07.040Z,90.30
2018-09-23T13:01:36.676Z,90.20
2018-09-23T13:04:06.331Z,90.30
2018-09-23T13:06:35.908Z,90.10
2018-09-23T13:09:06.539Z,90.70
2018-09-23T13:11:36.217Z,90.60
2018-09-23T13:14:05.979Z,90.30
2018-09-23T13:16:36.175Z,90.00
2018-09-23T13:19:06.441Z,90.30
2018-09-23T13:21:36.312Z,91.20
2018-09-23T13:24:06.206Z,91.30
2018-09-23T13:26:35.876Z,91.30
2018-09-23T13:29:05.617Z,91.10
2018-09-23T13:31:35.214Z,91.30
2018-09-23T13:34:04.875Z,91.50
2018-09-23T13:36:34.553Z,91.60
2018-09-23T13:39:04.810Z,91.90
2018-09-23T13:41:34.392Z,92.30
2018-09-23T13:44:04.082Z,91.50
2018-09-23T13:46:33.768Z,91.70
2018-09-23T13:49:03.477Z,91.80
2018-09-23T13:51:33.067Z,92.10
2018-09-23T13:54:02.687Z,92.20
2018-09-23T13:56:32.466Z,92.40
2018-09-23T13:59:02.109Z,92.30
2018-09-23T14:01:31.771Z,92.10
2018-09-23T14:04:01.912Z,91.80
2018-09-23T14:06:31.767Z,92.10
2018-09-23T14:09:01.458Z,91.40
2018-09-23T14:11:31.119Z,91.10
2018-09-23T14:14:00.736Z,91.00
2018-09-23T14:16:30.388Z,90.60
2018-09-23T14:19:00.152Z,90.70
2018-09-23T14:21:29.896Z,90.80
2018-09-23T14:23:59.586Z,91.10
2018-09-23T14:26:29.256Z,91.60
2018-09-23T14:28:58.925Z,91.40
2018-09-23T14:31:28.594Z,91.70
2018-09-23T14:33:58.198Z,91.30
2018-09-23T14:36:27.858Z,90.80
2018-09-23T14:38:57.546Z,90.70
2018-09-23T14:41:27.185Z,90.60
2018-09-23T14:43:56.842Z,90.50
2018-09-23T14:46:26.485Z,90.80
2018-09-23T14:48:56.117Z,90.30
2018-09-23T14:51:25.770Z,90.10
2018-09-23T14:53:55.524Z,90.00
2018-09-23T14:56:25.179Z,90.40
2018-09-23T14:58:54.890Z,90.10
2018-09-23T15:01:25.196Z,90.00
2018-09-23T15:03:55.343Z,88.90
2018-09-23T15:06:25.783Z,89.40
2018-09-23T15:08:55.786Z,89.30
2018-09-23T15:11:25.804Z,89.50
2018-09-23T15:13:55.780Z,89.60
2018-09-23T15:16:25.901Z,89.50
2018-09-23T15:18:56.207Z,88.40
2018-09-23T15:21:26.507Z,87.50
2018-09-23T15:23:56.825Z,88.60
2018-09-23T15:26:27.338Z,88.80
2018-09-23T15:28:57.693Z,89.80
2018-09-23T15:31:27.962Z,90.10
2018-09-23T15:33:58.445Z,90.20
2018-09-23T15:36:28.780Z,90.60
2018-09-23T15:38:59.254Z,91.00
2018-09-23T15:41:29.544Z,90.90
2018-09-23T15:43:59.759Z,91.10
2018-09-23T15:46:30.207Z,91.30
2018-09-23T15:49:00.511Z,91.60
2018-09-23T15:51:30.809Z,91.70
2018-09-23T15:54:01.066Z,91.90
2018-09-23T15:56:31.411Z,91.90
2018-09-23T15:59:01.703Z,92.00
2018-09-23T16:01:32.969Z,92.20
2018-09-23T16:04:03.257Z,92.40
2018-09-23T16:06:33.620Z,92.20
2018-09-23T16:09:04.665Z,92.30
2018-09-23T16:11:35.017Z,92.40
2018-09-23T16:14:05.313Z,92.50
2018-09-23T16:16:35.665Z,92.70
2018-09-23T16:19:06.078Z,92.70
2018-09-23T16:21:36.554Z,92.70
2018-09-23T16:24:06.973Z,92.90
2018-09-23T16:26:37.368Z,92.90
2018-09-23T16:29:07.816Z,92.80
2018-09-23T16:34:44.634Z,92.70
2018-09-23T16:37:15.124Z,92.80
2018-09-23T16:39:45.590Z,92.70
2018-09-23T16:42:16.139Z,92.80
2018-09-23T16:44:46.715Z,93.00
2018-09-23T16:47:17.168Z,92.80
2018-09-23T16:49:47.734Z,92.90
2018-09-23T16:52:18.154Z,93.10
2018-09-23T16:54:49.712Z,93.00
2018-09-23T16:57:21.699Z,93.00
2018-09-23T16:59:52.094Z,93.20
2018-09-23T17:02:22.680Z,93.20
2018-09-23T17:04:53.635Z,93.30
2018-09-23T17:07:24.773Z,93.30
2018-09-23T17:09:55.077Z,93.20
2018-09-23T17:12:26.557Z,93.30
2018-09-23T17:14:56.993Z,93.40
2018-09-23T17:17:27.441Z,93.50
2018-09-23T17:19:57.867Z,93.50
2018-09-23T17:22:28.354Z,93.70
2018-09-23T17:24:58.819Z,93.60
2018-09-23T17:27:30.169Z,93.50
2018-09-23T17:30:00.663Z,93.50
2018-09-23T17:32:31.242Z,93.80
2018-09-23T17:35:02.079Z,93.70
2018-09-23T17:37:32.510Z,93.70
2018-09-23T17:40:05.960Z,93.90
2018-09-23T17:42:36.523Z,93.80
2018-09-23T17:45:13.538Z,93.80
2018-09-23T17:47:43.994Z,94.00
2018-09-23T17:50:15.570Z,94.00
2018-09-23T17:52:45.960Z,94.10
2018-09-23T17:55:17.421Z,94.30
2018-09-23T17:57:47.927Z,94.20
2018-09-23T18:00:18.309Z,94.30
2018-09-23T18:02:48.784Z,94.20
2018-09-23T18:05:19.853Z,94.40
2018-09-23T18:07:50.413Z,94.40
2018-09-23T18:10:20.977Z,94.30
2018-09-23T18:12:51.464Z,94.30
2018-09-23T18:15:21.990Z,94.40
2018-09-23T18:17:52.566Z,94.30
2018-09-23T18:20:22.966Z,94.20
2018-09-23T18:23:01.309Z,94.20
2018-09-23T18:25:32.741Z,94.40
2018-09-23T18:28:09.466Z,94.30
2018-09-23T18:30:39.916Z,94.30
2018-09-23T18:33:10.400Z,94.30
2018-09-23T18:35:45.863Z,94.30
2018-09-23T18:38:16.471Z,94.40
2018-09-23T18:40:46.930Z,94.40
2018-09-23T18:43:17.383Z,94.40
2018-09-23T18:45:48.399Z,94.50
2018-09-23T18:48:20.200Z,94.60
2018-09-23T18:50:50.644Z,94.60
2018-09-23T18:53:22.938Z,94.60
2018-09-23T18:55:54.299Z,94.60
2018-09-23T18:58:24.753Z,94.60
2018-09-23T19:00:55.100Z,94.70
2018-09-23T19:03:25.502Z,94.70
2018-09-23T19:05:56.327Z,94.70
2018-09-23T19:08:26.707Z,94.80
2018-09-23T19:10:57.053Z,94.70
2018-09-23T19:13:32.223Z,94.60
2018-09-23T19:16:07.459Z,94.70
2018-09-23T19:18:38.961Z,94.70
2018-09-23T19:21:10.096Z,94.90
2018-09-23T19:23:42.381Z,94.90
2018-09-23T19:26:14.845Z,94.90
2018-09-23T19:28:46.303Z,95.00
2018-09-23T19:31:18.135Z,95.00
2018-09-23T19:33:49.097Z,95.00
2018-09-23T19:36:20.213Z,95.00
2018-09-23T19:38:50.660Z,95.10
2018-09-23T19:41:22.825Z,95.10
2018-09-23T19:43:53.794Z,95.00
2018-09-23T19:46:25.687Z,95.20
2018-09-23T19:48:57.065Z,95.10
2018-09-23T19:51:28.675Z,95.10
2018-09-23T19:53:59.258Z,95.20
2018-09-23T19:56:31.428Z,95.20
2018-09-23T19:59:03.303Z,95.20
2018-09-23T20:01:33.745Z,95.30
2018-09-23T20:04:05.328Z,95.40
2018-09-23T20:06:36.386Z,95.40
2018-09-23T20:09:08.231Z,95.20
2018-09-23T20:11:39.965Z,95.20
2018-09-23T20:14:10.255Z,95.20
2018-09-23T20:16:40.539Z,95.30
2018-09-23T20:19:10.845Z,95.30
2018-09-23T20:21:40.891Z,95.50
2018-09-23T20:24:10.900Z,95.70
2018-09-23T20:26:40.664Z,95.60
2018-09-23T20:29:10.320Z,95.50
2018-09-23T20:31:39.958Z,95.50
2018-09-23T20:34:09.633Z,95.50
2018-09-23T20:36:39.548Z,95.50
2018-09-23T20:39:10.335Z,95.60
2018-09-23T20:41:39.979Z,95.70
2018-09-23T20:44:09.586Z,95.80
2018-09-23T20:46:39.223Z,95.90
2018-09-23T20:49:08.826Z,95.70
2018-09-23T20:51:38.381Z,95.70
2018-09-23T20:54:07.966Z,95.70
2018-09-23T20:56:37.572Z,95.70
2018-09-23T20:59:07.218Z,95.70
2018-09-23T21:01:36.792Z,95.80
2018-09-23T21:04:06.477Z,95.80
2018-09-23T21:06:36.109Z,95.90
2018-09-23T21:09:07.821Z,96.00
2018-09-23T21:11:37.378Z,95.90
2018-09-23T21:14:07.230Z,96.00
2018-09-23T21:16:36.936Z,95.90
2018-09-23T21:19:06.557Z,95.90
2018-09-23T21:21:36.244Z,96.00
2018-09-23T21:24:05.846Z,95.90
2018-09-23T21:26:35.479Z,95.90
2018-09-23T21:29:05.058Z,95.80
2018-09-23T21:31:34.577Z,95.80
2018-09-23T21:34:04.288Z,95.80
2018-09-23T21:36:33.867Z,95.80
2018-09-23T21:39:03.562Z,95.90
2018-09-23T21:41:33.168Z,95.70
2018-09-23T21:44:02.762Z,95.90
2018-09-23T21:46:32.426Z,96.20
2018-09-23T21:49:02.079Z,96.10
2018-09-23T21:51:31.695Z,96.10
2018-09-23T21:54:01.327Z,96.00
2018-09-23T21:56:30.933Z,96.00
2018-09-23T21:59:00.519Z,96.00
2018-09-23T22:01:30.192Z,96.00
2018-09-23T22:03:59.800Z,96.00
2018-09-23T22:06:29.434Z,96.10
2018-09-23T22:08:59.082Z,96.10
2018-09-23T22:11:28.630Z,96.10
2018-09-23T22:13:58.218Z,96.10
2018-09-23T22:16:27.855Z,96.20
2018-09-23T22:18:57.543Z,96.10
2018-09-23T22:21:27.156Z,96.30
2018-09-23T22:23:56.760Z,96.40
2018-09-23T22:26:26.400Z,96.30
2018-09-23T22:28:56.108Z,96.40
2018-09-23T22:31:25.729Z,96.50
2018-09-23T22:33:55.346Z,96.40
2018-09-23T22:36:24.947Z,96.50
2018-09-23T22:38:54.493Z,96.60
2018-09-23T22:41:24.129Z,96.70
2018-09-23T22:43:53.727Z,96.70
2018-09-23T22:46:23.428Z,96.70
2018-09-23T22:48:53.048Z,96.60
2018-09-23T22:51:22.653Z,96.50
2018-09-23T22:53:52.278Z,96.60
2018-09-23T22:56:22.164Z,96.50
2018-09-23T22:58:51.772Z,96.50
2018-09-23T23:01:21.395Z,96.50
2018-09-23T23:03:50.997Z,96.70
2018-09-23T23:06:20.630Z,96.70
2018-09-23T23:08:50.332Z,96.70
2018-09-23T23:11:19.972Z,96.70
2018-09-23T23:13:49.601Z,96.70
2018-09-23T23:16:19.312Z,96.70
2018-09-23T23:18:48.881Z,96.50
2018-09-23T23:21:18.541Z,96.70
2018-09-23T23:23:48.166Z,96.50
2018-09-23T23:26:17.800Z,96.60
2018-09-23T23:28:47.350Z,96.60
2018-09-23T23:31:17.031Z,96.80
2018-09-23T23:33:46.637Z,96.70
2018-09-23T23:36:16.221Z,96.70
2018-09-23T23:38:46.123Z,96.60
2018-09-23T23:41:15.712Z,96.70
2018-09-23T23:43:45.310Z,96.80
2018-09-23T23:46:15.898Z,96.70
2018-09-23T23:48:45.612Z,96.70
2018-09-23T23:51:15.259Z,96.60
2018-09-23T23:53:44.879Z,96.70
2018-09-23T23:56:14.545Z,96.70
2018-09-23T23:58:44.101Z,96.70
